createdAt,value
2023-01-18T00:00:34.179Z,3.90
2023-01-18T00:03:02.368Z,3.90
2023-01-18T00:05:30.501Z,3.90
2023-01-18T00:07:59.706Z,3.90
2023-01-18T00:10:27.623Z,3.90
2023-01-18T00:12:55.926Z,3.90
2023-01-18T00:15:24.295Z,3.90
2023-01-18T00:17:52.518Z,4.00
2023-01-18T00:20:22.148Z,4.00
2023-01-18T00:22:52.037Z,4.00
2023-01-18T00:25:23.849Z,4.00
2023-01-18T00:27:53.726Z,4.00
2023-01-18T00:30:24.232Z,4.00
2023-01-18T00:32:55.577Z,4.00
2023-01-18T00:35:24.595Z,3.90
2023-01-18T00:37:53.664Z,3.90
2023-01-18T00:40:25.939Z,3.90
2023-01-18T00:43:11.375Z,3.90
2023-01-18T00:45:40.929Z,3.90
2023-01-18T00:48:09.372Z,3.90
2023-01-18T00:50:38.193Z,3.90
2023-01-18T00:53:06.214Z,3.90
2023-01-18T00:55:35.435Z,3.90
2023-01-18T00:58:03.299Z,3.90
2023-01-18T01:00:32.517Z,3.90
2023-01-18T01:03:01.107Z,3.90
2023-01-18T01:05:47.508Z,3.90
2023-01-18T01:08:17.882Z,3.80
2023-01-18T01:10:48.297Z,3.80
2023-01-18T01:13:35.808Z,3.80
2023-01-18T01:16:24.073Z,3.80
2023-01-18T01:19:10.241Z,3.80
2023-01-18T01:21:56.237Z,3.80
2023-01-18T01:24:41.667Z,3.80
2023-01-18T01:27:11.584Z,3.80
2023-01-18T01:29:39.926Z,3.80
2023-01-18T01:32:08.309Z,3.80
2023-01-18T01:34:36.408Z,3.80
2023-01-18T01:37:04.823Z,3.80
2023-01-18T01:39:32.691Z,3.80
2023-01-18T01:42:00.634Z,3.80
2023-01-18T01:44:52.598Z,3.80
2023-01-18T01:47:33.129Z,3.80
2023-01-18T01:50:08.133Z,3.80
2023-01-18T01:52:39.329Z,3.80
2023-01-18T01:55:13.607Z,3.80
2023-01-18T01:57:47.564Z,3.80
2023-01-18T02:00:19.862Z,3.80
2023-01-18T02:02:51.336Z,3.80
2023-01-18T02:05:19.916Z,3.80
2023-01-18T02:07:49.092Z,3.80
2023-01-18T02:10:17.412Z,3.70
2023-01-18T02:12:48.316Z,3.70
2023-01-18T02:15:20.023Z,3.70
2023-01-18T02:18:09.973Z,3.70
2023-01-18T02:20:58.401Z,3.70
2023-01-18T02:23:44.683Z,3.70
2023-01-18T02:26:52.009Z,3.70
2023-01-18T02:29:26.806Z,3.70
2023-01-18T02:32:06.548Z,3.80
2023-01-18T02:34:40.244Z,3.70
2023-01-18T02:37:14.821Z,3.70
2023-01-18T02:39:52.693Z,3.70
2023-01-18T02:42:39.987Z,3.70
2023-01-18T02:45:35.960Z,3.70
2023-01-18T02:48:04.964Z,3.70
2023-01-18T02:50:33.170Z,3.70
2023-01-18T02:53:01.141Z,3.70
2023-01-18T02:55:37.902Z,3.80
2023-01-18T02:58:10.511Z,3.80
2023-01-18T03:00:45.372Z,3.80
2023-01-18T03:03:14.183Z,3.80
2023-01-18T03:05:44.674Z,3.80
2023-01-18T03:08:17.754Z,3.80
2023-01-18T03:10:57.005Z,3.80
2023-01-18T03:13:31.849Z,3.80
2023-01-18T03:16:07.854Z,3.80
2023-01-18T03:19:00.242Z,3.70
2023-01-18T03:21:41.845Z,3.80
2023-01-18T03:24:10.515Z,3.80
2023-01-18T03:26:43.212Z,3.70
2023-01-18T03:29:30.843Z,3.70
2023-01-18T03:32:21.895Z,3.70
2023-01-18T03:34:55.859Z,3.70
2023-01-18T03:37:28.553Z,3.70
2023-01-18T03:39:59.849Z,3.70
2023-01-18T03:42:33.352Z,3.70
2023-01-18T03:45:07.807Z,3.80
2023-01-18T03:47:37.761Z,3.70
2023-01-18T03:50:06.561Z,3.80
2023-01-18T03:52:41.717Z,3.80
2023-01-18T03:55:15.368Z,3.70
2023-01-18T03:57:48.008Z,3.70
2023-01-18T04:00:17.417Z,3.70
2023-01-18T04:02:48.594Z,3.70
2023-01-18T04:05:17.654Z,3.70
2023-01-18T04:07:45.897Z,3.70
2023-01-18T04:10:13.902Z,3.80
2023-01-18T04:12:41.823Z,3.80
2023-01-18T04:15:10.860Z,3.80
2023-01-18T04:17:39.654Z,3.70
2023-01-18T04:20:10.798Z,3.70
2023-01-18T04:22:38.764Z,3.70
2023-01-18T04:25:07.495Z,3.70
2023-01-18T04:27:35.426Z,3.70
2023-01-18T04:30:03.266Z,3.70
2023-01-18T04:32:31.148Z,3.70
2023-01-18T04:34:59.046Z,3.70
2023-01-18T04:37:30.524Z,3.70
2023-01-18T04:39:58.678Z,3.60
2023-01-18T04:42:26.770Z,3.70
2023-01-18T04:44:54.899Z,3.60
2023-01-18T04:47:22.971Z,3.60
2023-01-18T04:49:50.828Z,3.60
2023-01-18T04:52:19.308Z,3.60
2023-01-18T04:54:48.674Z,3.60
2023-01-18T04:57:16.651Z,3.60
2023-01-18T04:59:45.804Z,3.60
2023-01-18T05:02:15.238Z,3.60
2023-01-18T05:04:45.008Z,3.60
2023-01-18T05:07:13.272Z,3.60
2023-01-18T05:09:41.223Z,3.60
2023-01-18T05:12:10.467Z,3.60
2023-01-18T05:14:38.423Z,3.60
2023-01-18T05:17:07.361Z,3.60
2023-01-18T05:19:35.333Z,3.50
2023-01-18T05:22:03.189Z,3.60
2023-01-18T05:24:31.180Z,3.50
2023-01-18T05:26:59.083Z,3.50
2023-01-18T05:29:28.320Z,3.50
2023-01-18T05:31:56.258Z,3.50
2023-01-18T05:34:24.150Z,3.50
2023-01-18T05:36:52.102Z,3.50
2023-01-18T05:39:19.994Z,3.50
2023-01-18T05:41:47.965Z,3.50
2023-01-18T05:44:15.881Z,3.50
2023-01-18T05:46:45.111Z,3.50
2023-01-18T05:49:12.958Z,3.50
2023-01-18T05:51:40.911Z,3.60
2023-01-18T05:54:08.829Z,3.50
2023-01-18T05:56:37.136Z,3.50
2023-01-18T05:59:05.805Z,3.50
2023-01-18T06:01:33.792Z,3.60
2023-01-18T06:04:03.119Z,3.50
2023-01-18T06:06:33.928Z,3.50
2023-01-18T06:09:03.329Z,3.50
2023-01-18T06:11:31.380Z,3.50
2023-01-18T06:13:59.320Z,3.50
2023-01-18T06:16:27.434Z,3.50
2023-01-18T06:18:55.757Z,3.50
2023-01-18T06:21:24.998Z,3.50
2023-01-18T06:23:52.901Z,3.50
2023-01-18T06:26:20.793Z,3.50
2023-01-18T06:28:48.646Z,3.50
2023-01-18T06:31:16.575Z,3.50
2023-01-18T06:33:44.502Z,3.50
2023-01-18T06:36:12.365Z,3.50
2023-01-18T06:38:42.348Z,3.50
2023-01-18T06:41:10.262Z,3.50
2023-01-18T06:43:38.129Z,3.50
2023-01-18T06:46:08.132Z,3.40
2023-01-18T06:48:36.352Z,3.40
2023-01-18T06:51:04.748Z,3.50
2023-01-18T06:53:32.667Z,3.40
2023-01-18T06:56:02.765Z,3.40
2023-01-18T06:58:32.758Z,3.40
2023-01-18T07:01:01.764Z,3.40
2023-01-18T07:03:31.019Z,3.30
2023-01-18T07:06:00.394Z,3.30
2023-01-18T07:08:30.935Z,3.30
2023-01-18T07:10:59.376Z,3.30
2023-01-18T07:13:28.585Z,3.40
2023-01-18T07:16:00.871Z,3.30
2023-01-18T07:18:30.790Z,3.30
2023-01-18T07:21:00.351Z,3.30
2023-01-18T07:23:28.695Z,3.30
2023-01-18T07:26:00.911Z,3.30
2023-01-18T07:28:30.553Z,3.30
2023-01-18T07:30:59.432Z,3.30
2023-01-18T07:33:27.542Z,3.30
2023-01-18T07:35:56.518Z,3.30
2023-01-18T07:38:25.508Z,3.40
2023-01-18T07:40:59.262Z,3.40
2023-01-18T07:43:27.199Z,3.40
2023-01-18T07:45:58.043Z,3.40
2023-01-18T07:48:26.154Z,3.40
2023-01-18T07:50:55.807Z,3.40
2023-01-18T07:53:24.760Z,3.40
2023-01-18T07:55:53.090Z,3.40
2023-01-18T07:58:21.908Z,3.40
2023-01-18T08:00:49.839Z,3.40
2023-01-18T08:03:20.178Z,3.40
2023-01-18T08:05:48.802Z,3.40
2023-01-18T08:08:18.479Z,3.40
2023-01-18T08:10:46.412Z,3.40
2023-01-18T08:13:14.442Z,3.40
2023-01-18T08:15:42.375Z,3.40
2023-01-18T08:18:10.305Z,3.50
2023-01-18T08:20:40.588Z,3.50
2023-01-18T08:23:08.526Z,3.50
2023-01-18T08:25:36.568Z,3.50
2023-01-18T08:28:05.264Z,3.60
2023-01-18T08:30:35.017Z,3.50
2023-01-18T08:33:03.340Z,3.60
2023-01-18T08:35:33.182Z,3.50
2023-01-18T08:38:03.016Z,3.60
2023-01-18T08:40:31.415Z,3.60
2023-01-18T08:43:01.545Z,3.60
2023-01-18T08:45:30.104Z,3.70
2023-01-18T08:47:59.780Z,3.60
2023-01-18T08:50:28.294Z,3.60
2023-01-18T08:52:57.331Z,3.60
2023-01-18T08:55:28.112Z,3.60
2023-01-18T08:57:57.625Z,3.60
2023-01-18T09:00:28.405Z,3.60
2023-01-18T09:02:56.582Z,3.60
2023-01-18T09:05:25.592Z,3.60
2023-01-18T09:07:53.947Z,3.60
2023-01-18T09:10:22.412Z,3.60
2023-01-18T09:12:53.669Z,3.60
2023-01-18T09:15:21.838Z,3.60
2023-01-18T09:17:49.751Z,3.50
2023-01-18T09:20:19.155Z,3.60
2023-01-18T09:22:48.632Z,3.60
2023-01-18T09:25:18.391Z,3.50
2023-01-18T09:27:46.797Z,3.50
2023-01-18T09:30:17.966Z,3.50
2023-01-18T09:32:45.887Z,3.50
2023-01-18T09:35:17.978Z,3.50
2023-01-18T09:37:46.393Z,3.50
2023-01-18T09:40:18.526Z,3.50
2023-01-18T09:42:48.777Z,3.50
2023-01-18T09:45:28.650Z,3.50
2023-01-18T09:48:02.729Z,3.50
2023-01-18T09:50:33.546Z,3.50
2023-01-18T09:53:13.865Z,3.50
2023-01-18T09:55:49.861Z,3.50
2023-01-18T09:58:35.756Z,3.50
2023-01-18T10:01:12.064Z,3.60
2023-01-18T10:03:48.797Z,3.50
2023-01-18T10:06:22.357Z,3.50
2023-01-18T10:08:56.382Z,3.60
2023-01-18T10:11:31.222Z,3.60
2023-01-18T10:14:06.136Z,3.60
2023-01-18T10:16:37.693Z,3.60
2023-01-18T10:19:15.076Z,3.60
2023-01-18T10:21:53.503Z,3.60
2023-01-18T10:24:41.934Z,3.60
2023-01-18T10:27:36.542Z,3.70
2023-01-18T10:30:28.936Z,3.60
2023-01-18T10:33:01.426Z,3.70
2023-01-18T10:35:34.640Z,3.70
2023-01-18T10:38:05.871Z,3.60
2023-01-18T10:40:35.721Z,3.60
2023-01-18T10:43:04.642Z,3.60
2023-01-18T10:45:34.269Z,3.60
2023-01-18T10:48:24.356Z,3.70
2023-01-18T10:50:54.478Z,3.60
2023-01-18T10:53:27.241Z,3.70
2023-01-18T10:55:59.768Z,3.70
2023-01-18T10:58:30.482Z,3.70
2023-01-18T11:01:00.346Z,3.70
2023-01-18T11:03:38.312Z,3.80
2023-01-18T11:06:08.178Z,3.70
2023-01-18T11:08:37.759Z,3.70
2023-01-18T11:11:07.981Z,3.70
2023-01-18T11:13:42.765Z,3.70
2023-01-18T11:16:13.982Z,3.80
2023-01-18T11:18:58.483Z,3.80
2023-01-18T11:21:30.825Z,3.80
2023-01-18T11:23:59.257Z,3.80
2023-01-18T11:26:29.643Z,3.80
2023-01-18T11:29:01.014Z,3.70
2023-01-18T11:31:31.707Z,3.70
2023-01-18T11:34:02.943Z,3.80
2023-01-18T11:36:39.998Z,3.80
2023-01-18T11:39:32.326Z,3.80
2023-01-18T11:42:22.434Z,3.80
2023-01-18T11:45:13.395Z,3.80
2023-01-18T11:48:02.369Z,3.90
2023-01-18T11:50:43.267Z,3.90
2023-01-18T11:53:20.915Z,3.80
2023-01-18T11:55:56.304Z,3.80
2023-01-18T11:58:28.312Z,3.80
2023-01-18T12:01:07.100Z,3.80
2023-01-18T12:03:50.262Z,3.80
2023-01-18T12:06:30.550Z,3.70
2023-01-18T12:09:11.105Z,3.70
2023-01-18T12:11:50.065Z,3.80
2023-01-18T12:14:35.162Z,3.80
2023-01-18T12:17:30.123Z,3.80
2023-01-18T12:20:14.377Z,3.80
2023-01-18T12:23:09.276Z,3.80
2023-01-18T12:26:12.265Z,3.80
2023-01-18T12:28:59.668Z,3.80
2023-01-18T12:31:51.968Z,3.80
2023-01-18T12:34:24.299Z,3.80
2023-01-18T12:37:08.165Z,3.80
2023-01-18T12:39:54.120Z,3.80
2023-01-18T12:42:36.409Z,3.80
2023-01-18T12:45:18.862Z,3.70
2023-01-18T12:47:56.157Z,3.70
2023-01-18T12:50:26.677Z,3.70
2023-01-18T12:52:59.464Z,3.70
2023-01-18T12:55:32.817Z,3.70
2023-01-18T12:58:03.789Z,3.60
2023-01-18T13:00:35.486Z,3.60
2023-01-18T13:03:10.994Z,3.70
2023-01-18T13:05:51.107Z,3.60
2023-01-18T13:08:27.780Z,3.60
2023-01-18T13:11:04.415Z,3.60
2023-01-18T13:13:32.903Z,3.60
2023-01-18T13:16:09.968Z,3.60
2023-01-18T13:18:42.792Z,3.60
2023-01-18T13:21:16.753Z,3.60
2023-01-18T13:23:53.791Z,3.60
2023-01-18T13:26:28.351Z,3.60
2023-01-18T13:29:25.793Z,3.60
2023-01-18T13:31:53.868Z,3.60
2023-01-18T13:34:29.728Z,3.60
2023-01-18T13:37:13.366Z,3.60
2023-01-18T13:39:48.024Z,3.60
2023-01-18T13:42:35.163Z,3.60
2023-01-18T13:45:18.790Z,3.60
2023-01-18T13:47:55.839Z,3.60
2023-01-18T13:50:47.335Z,3.60
2023-01-18T13:53:24.413Z,3.60
2023-01-18T13:56:23.101Z,3.60
2023-01-18T13:59:05.552Z,3.60
2023-01-18T14:01:36.556Z,3.70
2023-01-18T14:04:28.603Z,3.60
2023-01-18T14:06:59.408Z,3.70
2023-01-18T14:09:35.359Z,3.70
2023-01-18T14:12:03.755Z,3.70
2023-01-18T14:14:35.309Z,3.70
2023-01-18T14:17:09.782Z,3.80
2023-01-18T14:20:17.664Z,3.80
2023-01-18T14:23:06.828Z,3.80
2023-01-18T14:25:54.214Z,3.70
2023-01-18T14:28:27.042Z,3.70
2023-01-18T14:30:59.610Z,3.70
2023-01-18T14:33:31.443Z,3.70
2023-01-18T14:36:00.883Z,3.70
2023-01-18T14:38:29.553Z,3.70
2023-01-18T14:41:00.457Z,3.70
2023-01-18T14:43:30.658Z,3.70
2023-01-18T14:46:03.097Z,3.70
2023-01-18T14:48:34.638Z,3.70
2023-01-18T14:51:04.956Z,3.70
2023-01-18T14:53:36.069Z,3.70
2023-01-18T14:56:07.251Z,3.60
2023-01-18T14:58:40.863Z,3.70
2023-01-18T15:01:26.417Z,3.60
2023-01-18T15:03:55.171Z,3.60
2023-01-18T15:06:34.421Z,3.60
2023-01-18T15:09:05.079Z,3.60
2023-01-18T15:11:35.590Z,3.50
2023-01-18T15:14:05.326Z,3.50
2023-01-18T15:16:35.387Z,3.50
2023-01-18T15:19:03.468Z,3.50
2023-01-18T15:21:34.829Z,3.50
2023-01-18T15:24:06.674Z,3.50
2023-01-18T15:26:36.186Z,3.50
2023-01-18T15:29:13.278Z,3.40
2023-01-18T15:31:49.418Z,3.40
2023-01-18T15:34:19.743Z,3.40
2023-01-18T15:36:47.921Z,3.30
2023-01-18T15:39:15.932Z,3.30
2023-01-18T15:41:44.920Z,3.30
2023-01-18T15:44:47.777Z,3.30
2023-01-18T15:47:22.662Z,3.30
2023-01-18T15:49:52.517Z,3.30
2023-01-18T15:52:36.269Z,3.30
2023-01-18T15:55:06.562Z,3.30
2023-01-18T15:57:36.869Z,3.30
2023-01-18T16:00:05.981Z,3.30
2023-01-18T16:02:42.331Z,3.30
2023-01-18T16:05:21.651Z,3.20
2023-01-18T16:07:53.119Z,3.20
2023-01-18T16:10:28.059Z,3.30
2023-01-18T16:12:57.418Z,3.30
2023-01-18T16:15:27.673Z,3.20
2023-01-18T16:18:04.009Z,3.20
2023-01-18T16:20:33.852Z,3.20
2023-01-18T16:23:09.659Z,3.20
2023-01-18T16:25:38.043Z,3.20
2023-01-18T16:28:06.353Z,3.10
2023-01-18T16:30:37.232Z,3.10
2023-01-18T16:33:10.827Z,3.10
2023-01-18T16:35:39.877Z,3.20
2023-01-18T16:38:12.141Z,3.20
2023-01-18T16:40:42.885Z,3.20
2023-01-18T16:43:23.170Z,3.10
2023-01-18T16:45:52.534Z,3.20
2023-01-18T16:48:23.614Z,3.10
2023-01-18T16:50:52.583Z,3.20
2023-01-18T16:53:20.612Z,3.20
2023-01-18T16:55:48.768Z,3.20
2023-01-18T16:58:18.285Z,3.20
2023-01-18T17:00:54.678Z,3.20
2023-01-18T17:03:24.238Z,3.20
2023-01-18T17:05:52.343Z,3.20
2023-01-18T17:08:20.389Z,3.20
2023-01-18T17:10:49.933Z,3.20
2023-01-18T17:13:17.936Z,3.20
2023-01-18T17:15:46.292Z,3.20
2023-01-18T17:18:16.148Z,3.20
2023-01-18T17:20:45.749Z,3.20
2023-01-18T17:23:13.757Z,3.20
2023-01-18T17:25:41.979Z,3.20
2023-01-18T17:28:11.936Z,3.10
2023-01-18T17:30:41.327Z,3.10
2023-01-18T17:33:16.864Z,3.10
2023-01-18T17:35:46.163Z,3.10
2023-01-18T17:38:23.007Z,3.10
2023-01-18T17:40:52.487Z,3.10
2023-01-18T17:43:36.225Z,3.10
2023-01-18T17:46:05.775Z,3.10
2023-01-18T17:48:33.975Z,3.10
2023-01-18T17:51:06.250Z,3.10
2023-01-18T17:53:34.161Z,3.10
2023-01-18T17:56:02.119Z,3.10
2023-01-18T17:58:30.049Z,3.10
2023-01-18T18:00:58.005Z,3.10
2023-01-18T18:03:25.883Z,3.10
2023-01-18T18:05:58.224Z,3.10
2023-01-18T18:08:27.493Z,3.10
2023-01-18T18:10:56.208Z,3.10
2023-01-18T18:13:24.363Z,3.10
2023-01-18T18:15:52.624Z,3.10
2023-01-18T18:18:23.972Z,3.10
2023-01-18T18:20:57.357Z,3.10
2023-01-18T18:23:25.352Z,3.10
2023-01-18T18:25:54.968Z,3.10
2023-01-18T18:28:24.382Z,3.10
2023-01-18T18:30:52.859Z,3.10
2023-01-18T18:33:22.927Z,3.10
2023-01-18T18:35:51.555Z,3.10
2023-01-18T18:38:22.900Z,3.10
2023-01-18T18:40:51.322Z,3.10
2023-01-18T18:43:21.470Z,3.10
2023-01-18T18:45:49.329Z,3.10
2023-01-18T18:48:17.217Z,3.10
2023-01-18T18:50:46.646Z,3.00
2023-01-18T18:53:14.556Z,3.00
2023-01-18T18:55:42.521Z,3.00
2023-01-18T18:58:10.559Z,3.00
2023-01-18T19:00:39.932Z,3.00
2023-01-18T19:03:08.666Z,3.00
2023-01-18T19:05:37.171Z,2.90
2023-01-18T19:08:05.258Z,2.90
2023-01-18T19:10:33.684Z,2.90
2023-01-18T19:13:02.732Z,2.80
2023-01-18T19:15:30.938Z,2.80
2023-01-18T19:18:00.204Z,2.70
2023-01-18T19:20:28.217Z,2.60
2023-01-18T19:22:56.387Z,2.60
2023-01-18T19:25:24.229Z,2.50
2023-01-18T19:27:52.164Z,2.40
2023-01-18T19:30:20.530Z,2.40
2023-01-18T19:32:50.809Z,2.40
2023-01-18T19:35:24.887Z,2.30
2023-01-18T19:37:52.767Z,2.30
2023-01-18T19:40:20.897Z,2.20
2023-01-18T19:42:54.773Z,2.20
2023-01-18T19:45:27.822Z,2.20
2023-01-18T19:47:57.814Z,2.20
2023-01-18T19:50:28.347Z,2.10
2023-01-18T19:52:56.681Z,2.10
2023-01-18T19:55:25.170Z,2.10
2023-01-18T19:57:56.228Z,2.10
2023-01-18T20:00:24.279Z,2.00
2023-01-18T20:02:53.006Z,2.00
2023-01-18T20:05:21.245Z,2.00
2023-01-18T20:07:51.213Z,2.00
2023-01-18T20:10:20.268Z,2.00
2023-01-18T20:12:48.919Z,2.00
2023-01-18T20:15:17.541Z,2.00
2023-01-18T20:17:45.495Z,1.90
2023-01-18T20:20:20.956Z,1.90
2023-01-18T20:22:57.251Z,1.90
2023-01-18T20:25:25.624Z,1.90
2023-01-18T20:27:53.555Z,1.90
2023-01-18T20:30:21.537Z,1.90
2023-01-18T20:32:49.429Z,1.90
2023-01-18T20:35:17.500Z,1.90
2023-01-18T20:37:45.351Z,1.80
2023-01-18T20:40:15.097Z,1.80
2023-01-18T20:42:43.221Z,1.80
2023-01-18T20:45:11.491Z,1.80
2023-01-18T20:47:39.571Z,1.80
2023-01-18T20:50:08.087Z,1.70
2023-01-18T20:52:36.041Z,1.70
2023-01-18T20:55:03.973Z,1.70
2023-01-18T20:57:33.353Z,1.70
2023-01-18T21:00:01.452Z,1.60
2023-01-18T21:02:29.532Z,1.60
2023-01-18T21:04:57.971Z,1.60
2023-01-18T21:07:25.924Z,1.60
2023-01-18T21:09:53.903Z,1.50
2023-01-18T21:12:22.327Z,1.50
2023-01-18T21:14:51.653Z,1.50
2023-01-18T21:17:19.709Z,1.50
2023-01-18T21:19:47.612Z,1.50
2023-01-18T21:22:15.853Z,1.40
2023-01-18T21:24:43.760Z,1.40
2023-01-18T21:27:11.688Z,1.40
2023-01-18T21:29:39.588Z,1.40
2023-01-18T21:32:09.027Z,1.50
2023-01-18T21:34:36.909Z,1.40
2023-01-18T21:37:04.866Z,1.40
2023-01-18T21:39:32.853Z,1.40
2023-01-18T21:42:18.057Z,1.30
2023-01-18T21:45:03.770Z,1.30
2023-01-18T21:47:33.017Z,1.30
2023-01-18T21:50:18.842Z,1.30
2023-01-18T21:53:04.176Z,1.40
2023-01-18T21:55:32.090Z,1.30
2023-01-18T21:58:17.544Z,1.30
2023-01-18T22:00:45.546Z,1.30
2023-01-18T22:03:15.288Z,1.30
2023-01-18T22:05:43.196Z,1.40
2023-01-18T22:08:11.152Z,1.30
2023-01-18T22:10:39.124Z,1.30
2023-01-18T22:13:07.013Z,1.30
2023-01-18T22:15:35.023Z,1.40
2023-01-18T22:18:03.205Z,1.40
2023-01-18T22:20:32.746Z,1.40
2023-01-18T22:23:00.625Z,1.40
2023-01-18T22:25:28.528Z,1.40
2023-01-18T22:27:56.543Z,1.50
2023-01-18T22:30:24.549Z,1.50
2023-01-18T22:32:52.461Z,1.50
2023-01-18T22:35:20.412Z,1.50
2023-01-18T22:37:49.692Z,1.50
2023-01-18T22:40:17.832Z,1.50
2023-01-18T22:42:45.657Z,1.50
2023-01-18T22:45:13.584Z,1.50
2023-01-18T22:47:41.541Z,1.50
2023-01-18T22:50:10.738Z,1.50
2023-01-18T22:52:38.671Z,1.60
2023-01-18T22:55:08.796Z,1.60
2023-01-18T22:57:37.048Z,1.60
2023-01-18T23:00:06.884Z,1.60
2023-01-18T23:02:34.829Z,1.50
2023-01-18T23:05:02.714Z,1.50
2023-01-18T23:07:30.678Z,1.50
2023-01-18T23:09:58.545Z,1.50
2023-01-18T23:12:27.839Z,1.40
2023-01-18T23:15:13.356Z,1.40
2023-01-18T23:17:42.268Z,1.40
2023-01-18T23:20:13.406Z,1.30
2023-01-18T23:22:41.249Z,1.30
2023-01-18T23:25:09.908Z,1.30
2023-01-18T23:27:39.196Z,1.30
2023-01-18T23:30:08.079Z,1.20
2023-01-18T23:32:37.223Z,1.20
2023-01-18T23:35:06.075Z,1.10
2023-01-18T23:37:34.247Z,1.10
2023-01-18T23:40:19.409Z,1.20
2023-01-18T23:43:06.194Z,1.10
2023-01-18T23:45:51.737Z,1.10
2023-01-18T23:48:38.154Z,1.00
2023-01-18T23:51:25.916Z,1.00
2023-01-18T23:54:12.535Z,1.00
2023-01-18T23:56:40.402Z,0.90
2023-01-18T23:59:10.064Z,0.90
